Time,TemperatureF,DewpointF,PressureIn,WindDirection,WindDirectionDegrees,WindSpeedMPH,WindSpeedGustMPH,Humidity,HourlyPrecipIn,Conditions,Clouds,dailyrainin,SoftwareType,DateUTC
2013-10-24 00:13:00,53.6,53.3,30.10,East,90,0.0,-999.0,99,-99.99,,,0.00,Acu-Link.com,2013-10-24 05:13:00,
2013-10-24 00:28:00,53.2,52.9,30.10,East,90,0.0,-999.0,99,-99.99,,,0.00,Acu-Link.com,2013-10-24 05:28:00,
2013-10-24 00:43:00,53.2,52.9,30.10,East,90,0.0,-999.0,99,-99.99,,,0.00,Acu-Link.com,2013-10-24 05:43:00,
2013-10-24 00:59:00,53.4,53.1,30.10,East,90,0.0,-999.0,99,-99.99,,,0.00,Acu-Link.com,2013-10-24 05:59:00,
2013-10-24 01:14:00,53.4,53.1,30.09,East,90,0.0,-999.0,99,-99.99,,,0.00,Acu-Link.com,2013-10-24 06:14:00,
2013-10-24 01:29:00,53.6,53.3,30.09,East,90,1.7,-999.0,99,-99.99,,,0.00,Acu-Link.com,2013-10-24 06:29:00,
2013-10-24 01:44:00,53.6,53.3,30.10,East,90,0.0,-999.0,99,-99.99,,,0.00,Acu-Link.com,2013-10-24 06:44:00,
2013-10-24 01:59:00,53.1,52.8,30.09,East,90,0.0,-999.0,99,-99.99,,,0.00,Acu-Link.com,2013-10-24 06:59:00,
2013-10-24 02:14:00,52.7,52.4,30.10,East,90,0.0,-999.0,99,-99.99,,,0.00,Acu-Link.com,2013-10-24 07:14:00,
2013-10-24 02:30:00,52.0,51.7,30.09,East,90,0.0,-999.0,99,-99.99,,,0.00,Acu-Link.com,2013-10-24 07:30:00,
2013-10-24 02:45:00,52.0,51.7,30.09,East,90,0.0,-999.0,99,-99.99,,,0.00,Acu-Link.com,2013-10-24 07:45:00,
2013-10-24 03:00:00,51.6,51.3,30.10,East,90,0.0,-999.0,99,-99.99,,,0.00,Acu-Link.com,2013-10-24 08:00:00,
2013-10-24 03:16:00,51.4,51.1,30.10,East,90,0.0,-999.0,99,-99.99,,,0.00,Acu-Link.com,2013-10-24 08:16:00,
2013-10-24 03:31:00,51.3,51.0,30.10,East,90,0.0,-999.0,99,-99.99,,,0.00,Acu-Link.com,2013-10-24 08:31:00,
2013-10-24 03:46:00,52.0,51.7,30.10,East,90,1.7,-999.0,99,-99.99,,,0.00,Acu-Link.com,2013-10-24 08:46:00,
2013-10-24 04:01:00,52.0,51.7,30.10,East,90,0.0,-999.0,99,-99.99,,,0.00,Acu-Link.com,2013-10-24 09:01:00,
2013-10-24 04:16:00,50.5,50.2,30.10,East,90,0.0,-999.0,99,-99.99,,,0.00,Acu-Link.com,2013-10-24 09:16:00,
2013-10-24 04:32:00,50.2,49.9,30.10,East,90,0.0,-999.0,99,-99.99,,,0.00,Acu-Link.com,2013-10-24 09:32:00,
2013-10-24 04:47:00,50.0,49.7,30.10,East,90,0.0,-999.0,99,-99.99,,,0.00,Acu-Link.com,2013-10-24 09:47:00,
2013-10-24 05:02:00,49.8,49.5,30.11,East,90,0.0,-999.0,99,-99.99,,,0.00,Acu-Link.com,2013-10-24 10:02:00,
2013-10-24 05:17:00,51.1,50.8,30.11,East,90,2.2,-999.0,99,-99.99,,,0.00,Acu-Link.com,2013-10-24 10:17:00,
2013-10-24 05:32:00,51.1,50.8,30.11,East,90,1.1,-999.0,99,-99.99,,,0.00,Acu-Link.com,2013-10-24 10:32:00,
2013-10-24 05:48:00,51.6,51.3,30.12,SE,135,3.2,-999.0,99,-99.99,,,0.00,Acu-Link.com,2013-10-24 10:48:00,
2013-10-24 06:03:00,51.8,51.5,30.12,SE,135,0.0,-999.0,99,-99.99,,,0.00,Acu-Link.com,2013-10-24 11:03:00,
2013-10-24 06:18:00,50.9,50.6,30.13,SE,135,0.0,-999.0,99,-99.99,,,0.00,Acu-Link.com,2013-10-24 11:18:00,
2013-10-24 06:34:00,50.0,49.7,30.13,SE,135,0.0,-999.0,99,-99.99,,,0.00,Acu-Link.com,2013-10-24 11:34:00,
2013-10-24 06:49:00,49.5,49.2,30.14,SE,135,0.0,-999.0,99,-99.99,,,0.00,Acu-Link.com,2013-10-24 11:49:00,
2013-10-24 07:04:00,49.3,49.0,30.14,SE,135,0.0,-999.0,99,-99.99,,,0.00,Acu-Link.com,2013-10-24 12:04:00,
2013-10-24 07:20:00,49.8,49.5,30.14,SE,135,0.0,-999.0,99,-99.99,,,0.00,Acu-Link.com,2013-10-24 12:20:00,
2013-10-24 07:35:00,49.6,49.3,30.15,SE,135,1.7,-999.0,99,-99.99,,,0.00,Acu-Link.com,2013-10-24 12:35:00,
2013-10-24 07:50:00,50.5,50.2,30.16,SE,135,0.0,-999.0,99,-99.99,,,0.00,Acu-Link.com,2013-10-24 12:50:00,
2013-10-24 08:05:00,54.3,54.0,30.17,SE,135,0.0,-999.0,99,-99.99,,,0.00,Acu-Link.com,2013-10-24 13:05:00,
2013-10-24 08:21:00,58.3,58.0,30.17,SE,135,0.0,-999.0,99,-99.99,,,0.00,Acu-Link.com,2013-10-24 13:21:00,
2013-10-24 08:36:00,62.8,58.2,30.18,SSE,157,1.7,-999.0,85,-99.99,,,0.00,Acu-Link.com,2013-10-24 13:36:00,
2013-10-24 08:51:00,65.1,56.6,30.18,South,180,3.2,-999.0,74,-99.99,,,0.00,Acu-Link.com,2013-10-24 13:51:00,
2013-10-24 09:06:00,66.6,55.7,30.19,South,180,4.7,-999.0,68,-99.99,,,0.00,Acu-Link.com,2013-10-24 14:06:00,
2013-10-24 09:21:00,66.4,56.7,30.19,South,180,2.2,-999.0,71,-99.99,,,0.00,Acu-Link.com,2013-10-24 14:21:00,
2013-10-24 09:37:00,67.6,57.1,30.19,South,180,1.7,-999.0,69,-99.99,,,0.00,Acu-Link.com,2013-10-24 14:37:00,
2013-10-24 09:52:00,69.6,56.9,30.19,SSE,157,3.7,-999.0,64,-99.99,,,0.00,Acu-Link.com,2013-10-24 14:52:00,
2013-10-24 10:07:00,70.3,56.7,30.19,South,180,3.2,-999.0,62,-99.99,,,0.00,Acu-Link.com,2013-10-24 15:07:00,
2013-10-24 10:22:00,71.4,57.2,30.19,ESE,112,2.2,-999.0,61,-99.99,,,0.00,Acu-Link.com,2013-10-24 15:22:00,
2013-10-24 10:38:00,72.3,57.2,30.19,West,270,1.1,-999.0,59,-99.99,,,0.00,Acu-Link.com,2013-10-24 15:38:00,
2013-10-24 10:53:00,73.4,58.2,30.19,SSW,202,3.2,-999.0,59,-99.99,,,0.00,Acu-Link.com,2013-10-24 15:53:00,
2013-10-24 11:08:00,73.4,55.7,30.19,SW,225,3.7,-999.0,54,-99.99,,,0.00,Acu-Link.com,2013-10-24 16:08:00,
2013-10-24 11:23:00,75.0,56.7,30.19,SE,135,2.7,-999.0,53,-99.99,,,0.00,Acu-Link.com,2013-10-24 16:23:00,
2013-10-24 11:38:00,75.4,58.6,30.19,SW,225,3.7,-999.0,56,-99.99,,,0.00,Acu-Link.com,2013-10-24 16:38:00,
2013-10-24 11:53:00,76.8,58.4,30.18,WSW,247,3.2,-999.0,53,-99.99,,,0.00,Acu-Link.com,2013-10-24 16:53:00,
2013-10-24 12:09:00,77.2,56.0,30.18,West,270,4.2,-999.0,48,-99.99,,,0.00,Acu-Link.com,2013-10-24 17:09:00,
2013-10-24 12:24:00,77.7,57.6,30.17,West,270,4.7,-999.0,50,-99.99,,,0.00,Acu-Link.com,2013-10-24 17:24:00,
2013-10-24 12:39:00,77.9,57.7,30.17,West,270,1.1,-999.0,50,-99.99,,,0.00,Acu-Link.com,2013-10-24 17:39:00,
2013-10-24 12:54:00,78.4,58.2,30.16,West,270,5.3,-999.0,50,-99.99,,,0.00,Acu-Link.com,2013-10-24 17:54:00,
2013-10-24 13:09:00,78.6,57.8,30.16,West,270,3.7,-999.0,49,-99.99,,,0.00,Acu-Link.com,2013-10-24 18:09:00,
2013-10-24 13:24:00,79.3,57.3,30.15,SW,225,4.2,-999.0,47,-99.99,,,0.00,Acu-Link.com,2013-10-24 18:24:00,
2013-10-24 13:40:00,79.7,59.4,30.14,WSW,247,4.2,-999.0,50,-99.99,,,0.00,Acu-Link.com,2013-10-24 18:40:00,
2013-10-24 13:55:00,80.8,59.3,30.14,NW,315,8.9,-999.0,48,-99.99,,,0.00,Acu-Link.com,2013-10-24 18:55:00,
2013-10-24 14:10:00,80.1,58.6,30.13,West,270,4.7,-999.0,48,-99.99,,,0.00,Acu-Link.com,2013-10-24 19:10:00,
2013-10-24 14:25:00,80.1,58.0,30.13,SW,225,4.2,-999.0,47,-99.99,,,0.00,Acu-Link.com,2013-10-24 19:25:00,
2013-10-24 14:40:00,80.4,57.7,30.12,West,270,3.2,-999.0,46,-99.99,,,0.00,Acu-Link.com,2013-10-24 19:40:00,
2013-10-24 14:55:00,80.2,56.9,30.12,WNW,292,2.2,-999.0,45,-99.99,,,0.00,Acu-Link.com,2013-10-24 19:55:00,
2013-10-24 15:10:00,80.8,57.5,30.12,West,270,3.7,-999.0,45,-99.99,,,0.00,Acu-Link.com,2013-10-24 20:10:00,
2013-10-24 15:26:00,80.6,58.5,30.11,NW,315,5.3,-999.0,47,-99.99,,,0.00,Acu-Link.com,2013-10-24 20:26:00,
2013-10-24 15:41:00,80.6,58.5,30.11,West,270,4.2,-999.0,47,-99.99,,,0.00,Acu-Link.com,2013-10-24 20:41:00,
2013-10-24 15:56:00,80.4,57.7,30.11,West,270,2.7,-999.0,46,-99.99,,,0.00,Acu-Link.com,2013-10-24 20:56:00,
2013-10-24 16:12:00,80.6,58.5,30.11,NW,315,2.7,-999.0,47,-99.99,,,0.00,Acu-Link.com,2013-10-24 21:12:00,
2013-10-24 16:27:00,81.7,58.9,30.11,South,180,1.7,-999.0,46,-99.99,,,0.00,Acu-Link.com,2013-10-24 21:27:00,
2013-10-24 16:42:00,80.6,59.6,30.12,WNW,292,4.7,-999.0,49,-99.99,,,0.00,Acu-Link.com,2013-10-24 21:42:00,
2013-10-24 16:57:00,80.1,59.2,30.13,West,270,2.7,-999.0,49,-99.99,,,0.00,Acu-Link.com,2013-10-24 21:57:00,
2013-10-24 17:12:00,79.7,60.5,30.13,West,270,2.7,-999.0,52,-99.99,,,0.00,Acu-Link.com,2013-10-24 22:12:00,
2013-10-24 17:28:00,78.6,60.0,30.13,West,270,1.1,-999.0,53,-99.99,,,0.00,Acu-Link.com,2013-10-24 22:28:00,
2013-10-24 17:43:00,77.7,60.7,30.12,WNW,292,1.1,-999.0,56,-99.99,,,0.00,Acu-Link.com,2013-10-24 22:43:00,
2013-10-24 17:58:00,81.1,63.4,30.11,West,270,0.0,-999.0,55,-99.99,,,0.00,Acu-Link.com,2013-10-24 22:58:00,
2013-10-24 18:14:00,79.2,63.6,30.12,West,270,0.0,-999.0,59,-99.99,,,0.00,Acu-Link.com,2013-10-24 23:14:00,
2013-10-24 18:29:00,75.6,63.4,30.12,West,270,0.0,-999.0,66,-99.99,,,0.00,Acu-Link.com,2013-10-24 23:29:00,
2013-10-24 18:44:00,71.6,62.5,30.12,West,270,0.0,-999.0,73,-99.99,,,0.00,Acu-Link.com,2013-10-24 23:44:00,
2013-10-24 19:00:00,68.4,62.3,30.12,West,270,0.0,-999.0,81,-99.99,,,0.00,Acu-Link.com,2013-10-25 00:00:00,
2013-10-24 19:15:00,67.3,62.3,30.13,West,270,0.0,-999.0,84,-99.99,,,0.00,Acu-Link.com,2013-10-25 00:15:00,
2013-10-24 19:30:00,65.7,62.4,30.13,West,270,0.0,-999.0,89,-99.99,,,0.00,Acu-Link.com,2013-10-25 00:30:00,
2013-10-24 19:45:00,64.8,61.2,30.13,West,270,0.0,-999.0,88,-99.99,,,0.00,Acu-Link.com,2013-10-25 00:45:00,
2013-10-24 20:00:00,63.9,60.6,30.13,West,270,0.0,-999.0,89,-99.99,,,0.00,Acu-Link.com,2013-10-25 01:00:00,
2013-10-24 20:16:00,62.8,60.4,30.14,West,270,0.0,-999.0,92,-99.99,,,0.00,Acu-Link.com,2013-10-25 01:16:00,
2013-10-24 20:31:00,62.2,60.1,30.15,West,270,0.0,-999.0,93,-99.99,,,0.00,Acu-Link.com,2013-10-25 01:31:00,
2013-10-24 20:46:00,61.5,59.5,30.15,West,270,0.0,-999.0,93,-99.99,,,0.00,Acu-Link.com,2013-10-25 01:46:00,
2013-10-24 21:01:00,61.2,59.8,30.15,West,270,0.0,-999.0,95,-99.99,,,0.00,Acu-Link.com,2013-10-25 02:01:00,
2013-10-24 21:16:00,61.2,60.6,30.15,West,270,1.7,-999.0,98,-99.99,,,0.00,Acu-Link.com,2013-10-25 02:16:00,
2013-10-24 21:32:00,60.8,60.2,30.16,ESE,112,0.0,-999.0,98,-99.99,,,0.00,Acu-Link.com,2013-10-25 02:32:00,
2013-10-24 21:47:00,60.6,60.0,30.16,ESE,112,0.0,-999.0,98,-99.99,,,0.00,Acu-Link.com,2013-10-25 02:47:00,
2013-10-24 22:02:00,60.4,59.8,30.17,ESE,112,0.0,-999.0,98,-99.99,,,0.00,Acu-Link.com,2013-10-25 03:02:00,
2013-10-24 22:17:00,60.1,59.5,30.17,ESE,112,0.0,-999.0,98,-99.99,,,0.00,Acu-Link.com,2013-10-25 03:17:00,
2013-10-24 22:33:00,60.1,59.5,30.17,ESE,112,0.0,-999.0,98,-99.99,,,0.00,Acu-Link.com,2013-10-25 03:33:00,
2013-10-24 22:48:00,59.9,59.0,30.17,ESE,112,0.0,-999.0,97,-99.99,,,0.00,Acu-Link.com,2013-10-25 03:48:00,
2013-10-24 23:03:00,61.2,59.2,30.19,NNW,337,3.7,-999.0,93,-99.99,,,0.00,Acu-Link.com,2013-10-25 04:03:00,
2013-10-24 23:18:00,62.6,59.3,30.20,NW,315,2.7,-999.0,89,-99.99,,,0.00,Acu-Link.com,2013-10-25 04:18:00,
2013-10-24 23:33:00,61.5,58.8,30.20,West,270,0.0,-999.0,91,-99.99,,,0.00,Acu-Link.com,2013-10-25 04:33:00,
2013-10-24 23:48:00,60.3,58.3,30.20,West,270,0.0,-999.0,93,-99.99,,,0.00,Acu-Link.com,2013-10-25 04:48:00,